sensor_id;sensor_type;location;lat;lon;timestamp;P1;durP1;ratioP1;P2;durP2;ratioP2
9324;SDS011;4701;51.566;6.776;2023-04-06T07:03:41;10.70;;;7.17;;
9324;SDS011;4701;51.566;6.776;2023-04-06T07:06:44;10.70;;;7.33;;
9324;SDS011;4701;51.566;6.776;2023-04-06T07:09:46;12.83;;;7.97;;
9324;SDS011;4701;51.566;6.776;2023-04-06T07:12:48;12.90;;;8.33;;
9324;SDS011;4701;51.566;6.776;2023-04-06T07:15:50;10.60;;;7.90;;
9324;SDS011;4701;51.566;6.776;2023-04-06T07:18:53;14.00;;;8.50;;
9324;SDS011;4701;51.566;6.776;2023-04-06T07:21:56;10.40;;;7.60;;
9324;SDS011;4701;51.566;6.776;2023-04-06T07:24:58;16.10;;;9.23;;
9324;SDS011;4701;51.566;6.776;2023-04-06T07:28:00;11.97;;;8.77;;
9324;SDS011;4701;51.566;6.776;2023-04-06T07:31:02;15.57;;;10.03;;
9324;SDS011;4701;51.566;6.776;2023-04-06T07:34:05;16.60;;;9.97;;
9324;SDS011;4701;51.566;6.776;2023-04-06T07:37:08;13.10;;;10.23;;
9324;SDS011;4701;51.566;6.776;2023-04-06T07:40:10;13.77;;;9.30;;
9324;SDS011;4701;51.566;6.776;2023-04-06T07:43:13;15.03;;;9.10;;
9324;SDS011;4701;51.566;6.776;2023-04-06T07:46:16;11.90;;;8.63;;
9324;SDS011;4701;51.566;6.776;2023-04-06T07:49:19;13.00;;;8.57;;
9324;SDS011;4701;51.566;6.776;2023-04-06T07:52:23;16.30;;;8.23;;
9324;SDS011;4701;51.566;6.776;2023-04-06T07:55:25;13.20;;;8.37;;
9324;SDS011;4701;51.566;6.776;2023-04-06T07:58:27;12.83;;;8.37;;
9324;SDS011;4701;51.566;6.776;2023-04-06T08:01:29;15.00;;;8.80;;
9324;SDS011;4701;51.566;6.776;2023-04-06T08:04:33;14.00;;;8.53;;
9324;SDS011;4701;51.566;6.776;2023-04-06T08:07:35;12.80;;;8.60;;
9324;SDS011;4701;51.566;6.776;2023-04-06T08:10:37;12.10;;;9.33;;
9324;SDS011;4701;51.566;6.776;2023-04-06T08:13:39;10.47;;;8.90;;
9324;SDS011;4701;51.566;6.776;2023-04-06T08:16:40;12.60;;;8.63;;
9324;SDS011;4701;51.566;6.776;2023-04-06T08:19:44;13.87;;;9.27;;
9324;SDS011;4701;51.566;6.776;2023-04-06T08:22:46;13.50;;;8.57;;
9324;SDS011;4701;51.566;6.776;2023-04-06T08:25:48;14.90;;;9.17;;
9324;SDS011;4701;51.566;6.776;2023-04-06T08:28:50;13.47;;;8.80;;
9324;SDS011;4701;51.566;6.776;2023-04-06T08:31:52;14.97;;;9.73;;
9324;SDS011;4701;51.566;6.776;2023-04-06T08:34:55;13.27;;;9.17;;
9324;SDS011;4701;51.566;6.776;2023-04-06T08:37:57;12.77;;;9.00;;
9324;SDS011;4701;51.566;6.776;2023-04-06T08:40:59;13.20;;;9.37;;
9324;SDS011;4701;51.566;6.776;2023-04-06T08:44:01;15.70;;;9.70;;
9324;SDS011;4701;51.566;6.776;2023-04-06T08:47:05;12.57;;;9.23;;
9324;SDS011;4701;51.566;6.776;2023-04-06T08:50:09;14.47;;;9.60;;
9324;SDS011;4701;51.566;6.776;2023-04-06T08:53:12;12.03;;;8.73;;
9324;SDS011;4701;51.566;6.776;2023-04-06T08:56:15;14.93;;;9.17;;
9324;SDS011;4701;51.566;6.776;2023-04-06T08:59:18;12.90;;;9.27;;
9324;SDS011;4701;51.566;6.776;2023-04-06T09:02:20;16.37;;;11.03;;
9324;SDS011;4701;51.566;6.776;2023-04-06T09:05:24;14.53;;;10.90;;
9324;SDS011;4701;51.566;6.776;2023-04-06T09:08:27;16.13;;;11.67;;
9324;SDS011;4701;51.566;6.776;2023-04-06T09:11:29;15.20;;;9.77;;
9324;SDS011;4701;51.566;6.776;2023-04-06T09:14:42;16.67;;;11.80;;
9324;SDS011;4701;51.566;6.776;2023-04-06T09:17:44;18.43;;;12.03;;
9324;SDS011;4701;51.566;6.776;2023-04-06T09:20:49;13.77;;;9.53;;
9324;SDS011;4701;51.566;6.776;2023-04-06T09:23:58;15.57;;;9.87;;
9324;SDS011;4701;51.566;6.776;2023-04-06T09:27:03;14.80;;;10.50;;
9324;SDS011;4701;51.566;6.776;2023-04-06T09:30:06;12.20;;;9.13;;
9324;SDS011;4701;51.566;6.776;2023-04-06T09:33:10;15.03;;;9.90;;
9324;SDS011;4701;51.566;6.776;2023-04-06T09:36:13;11.43;;;9.33;;
9324;SDS011;4701;51.566;6.776;2023-04-06T09:39:19;17.57;;;11.47;;
9324;SDS011;4701;51.566;6.776;2023-04-06T09:42:23;19.20;;;11.77;;
9324;SDS011;4701;51.566;6.776;2023-04-06T09:45:27;19.70;;;10.87;;
9324;SDS011;4701;51.566;6.776;2023-04-06T09:48:34;17.73;;;11.57;;
9324;SDS011;4701;51.566;6.776;2023-04-06T09:51:39;14.37;;;10.20;;
9324;SDS011;4701;51.566;6.776;2023-04-06T09:54:42;18.20;;;11.17;;
9324;SDS011;4701;51.566;6.776;2023-04-06T09:57:45;16.93;;;10.63;;
9324;SDS011;4701;51.566;6.776;2023-04-06T10:00:55;16.77;;;10.83;;
9324;SDS011;4701;51.566;6.776;2023-04-06T10:04:05;16.10;;;11.40;;
9324;SDS011;4701;51.566;6.776;2023-04-06T10:07:16;16.20;;;11.33;;
9324;SDS011;4701;51.566;6.776;2023-04-06T10:10:18;16.83;;;11.40;;
9324;SDS011;4701;51.566;6.776;2023-04-06T10:13:21;15.80;;;10.80;;
9324;SDS011;4701;51.566;6.776;2023-04-06T10:16:25;19.50;;;11.50;;
9324;SDS011;4701;51.566;6.776;2023-04-06T10:19:31;16.87;;;11.50;;
9324;SDS011;4701;51.566;6.776;2023-04-06T10:22:41;17.77;;;11.20;;
9324;SDS011;4701;51.566;6.776;2023-04-06T10:25:54;14.80;;;10.60;;
9324;SDS011;4701;51.566;6.776;2023-04-06T10:29:01;18.27;;;10.70;;
9324;SDS011;4701;51.566;6.776;2023-04-06T10:32:04;19.07;;;11.77;;
9324;SDS011;4701;51.566;6.776;2023-04-06T10:35:07;21.67;;;11.87;;
9324;SDS011;4701;51.566;6.776;2023-04-06T10:38:11;18.10;;;11.90;;
9324;SDS011;4701;51.566;6.776;2023-04-06T10:41:16;18.30;;;12.23;;
9324;SDS011;4701;51.566;6.776;2023-04-06T10:44:19;18.97;;;12.30;;
9324;SDS011;4701;51.566;6.776;2023-04-06T10:47:22;18.27;;;12.00;;
9324;SDS011;4701;51.566;6.776;2023-04-06T10:50:24;21.43;;;12.53;;
9324;SDS011;4701;51.566;6.776;2023-04-06T10:53:28;17.97;;;12.97;;
9324;SDS011;4701;51.566;6.776;2023-04-06T10:56:30;21.00;;;12.53;;
9324;SDS011;4701;51.566;6.776;2023-04-06T10:59:35;20.53;;;13.10;;
9324;SDS011;4701;51.566;6.776;2023-04-06T11:02:37;21.73;;;13.13;;
9324;SDS011;4701;51.566;6.776;2023-04-06T11:05:43;18.93;;;12.53;;
9324;SDS011;4701;51.566;6.776;2023-04-06T11:08:46;16.80;;;11.53;;
9324;SDS011;4701;51.566;6.776;2023-04-06T11:11:48;17.70;;;11.90;;
9324;SDS011;4701;51.566;6.776;2023-04-06T11:14:54;20.83;;;13.17;;
9324;SDS011;4701;51.566;6.776;2023-04-06T11:18:03;19.70;;;12.80;;
9324;SDS011;4701;51.566;6.776;2023-04-06T11:21:05;18.93;;;12.77;;
9324;SDS011;4701;51.566;6.776;2023-04-06T11:24:09;18.63;;;12.17;;
9324;SDS011;4701;51.566;6.776;2023-04-06T11:27:11;17.87;;;12.23;;
9324;SDS011;4701;51.566;6.776;2023-04-06T11:30:15;19.53;;;12.53;;
9324;SDS011;4701;51.566;6.776;2023-04-06T11:33:20;17.67;;;12.50;;
9324;SDS011;4701;51.566;6.776;2023-04-06T11:36:23;19.67;;;12.70;;
9324;SDS011;4701;51.566;6.776;2023-04-06T11:39:27;18.67;;;12.57;;
9324;SDS011;4701;51.566;6.776;2023-04-06T11:42:30;20.70;;;12.97;;
9324;SDS011;4701;51.566;6.776;2023-04-06T11:45:39;21.57;;;13.10;;
9324;SDS011;4701;51.566;6.776;2023-04-06T11:48:43;20.20;;;13.43;;
9324;SDS011;4701;51.566;6.776;2023-04-06T11:51:45;21.20;;;12.20;;
9324;SDS011;4701;51.566;6.776;2023-04-06T11:54:49;20.03;;;13.23;;
9324;SDS011;4701;51.566;6.776;2023-04-06T11:57:53;18.70;;;12.87;;
9324;SDS011;4701;51.566;6.776;2023-04-06T12:01:02;22.43;;;14.03;;
9324;SDS011;4701;51.566;6.776;2023-04-06T12:04:08;19.47;;;13.63;;
9324;SDS011;4701;51.566;6.776;2023-04-06T12:07:10;19.20;;;13.63;;
9324;SDS011;4701;51.566;6.776;2023-04-06T12:10:14;18.77;;;12.83;;
9324;SDS011;4701;51.566;6.776;2023-04-06T12:13:16;17.40;;;13.93;;
9324;SDS011;4701;51.566;6.776;2023-04-06T12:16:17;21.90;;;13.93;;
9324;SDS011;4701;51.566;6.776;2023-04-06T12:19:20;18.97;;;13.40;;
9324;SDS011;4701;51.566;6.776;2023-04-06T12:22:26;18.63;;;12.73;;
9324;SDS011;4701;51.566;6.776;2023-04-06T12:25:29;19.27;;;13.93;;
9324;SDS011;4701;51.566;6.776;2023-04-06T12:28:31;18.03;;;12.90;;
9324;SDS011;4701;51.566;6.776;2023-04-06T12:31:34;20.13;;;13.30;;
9324;SDS011;4701;51.566;6.776;2023-04-06T12:34:37;20.20;;;13.07;;
9324;SDS011;4701;51.566;6.776;2023-04-06T12:37:40;27.57;;;18.27;;
9324;SDS011;4701;51.566;6.776;2023-04-06T12:40:44;21.73;;;15.00;;
9324;SDS011;4701;51.566;6.776;2023-04-06T12:43:48;18.97;;;13.23;;
9324;SDS011;4701;51.566;6.776;2023-04-06T12:46:50;19.83;;;13.10;;
9324;SDS011;4701;51.566;6.776;2023-04-06T12:49:52;19.77;;;13.40;;
9324;SDS011;4701;51.566;6.776;2023-04-06T12:52:55;17.03;;;12.47;;
9324;SDS011;4701;51.566;6.776;2023-04-06T12:55:59;15.17;;;12.10;;
9324;SDS011;4701;51.566;6.776;2023-04-06T12:59:01;17.73;;;12.60;;
9324;SDS011;4701;51.566;6.776;2023-04-06T13:02:03;18.93;;;12.07;;
9324;SDS011;4701;51.566;6.776;2023-04-06T13:05:06;16.57;;;10.87;;
9324;SDS011;4701;51.566;6.776;2023-04-06T13:08:08;12.87;;;9.70;;
9324;SDS011;4701;51.566;6.776;2023-04-06T13:11:12;14.67;;;10.37;;
9324;SDS011;4701;51.566;6.776;2023-04-06T13:14:14;14.20;;;9.77;;
9324;SDS011;4701;51.566;6.776;2023-04-06T13:17:16;12.40;;;9.27;;
9324;SDS011;4701;51.566;6.776;2023-04-06T13:20:18;14.10;;;9.87;;
9324;SDS011;4701;51.566;6.776;2023-04-06T13:23:20;13.50;;;8.93;;
9324;SDS011;4701;51.566;6.776;2023-04-06T13:26:24;16.00;;;9.37;;
9324;SDS011;4701;51.566;6.776;2023-04-06T13:29:26;10.73;;;8.67;;
9324;SDS011;4701;51.566;6.776;2023-04-06T13:32:28;13.47;;;8.57;;
9324;SDS011;4701;51.566;6.776;2023-04-06T13:35:30;14.30;;;8.90;;
9324;SDS011;4701;51.566;6.776;2023-04-06T13:38:32;9.80;;;7.73;;
9324;SDS011;4701;51.566;6.776;2023-04-06T13:41:35;10.67;;;7.67;;
9324;SDS011;4701;51.566;6.776;2023-04-06T13:44:37;12.87;;;8.00;;
9324;SDS011;4701;51.566;6.776;2023-04-06T13:47:39;10.37;;;7.03;;
9324;SDS011;4701;51.566;6.776;2023-04-06T13:50:41;8.80;;;6.47;;
9324;SDS011;4701;51.566;6.776;2023-04-06T13:53:43;10.40;;;6.60;;
9324;SDS011;4701;51.566;6.776;2023-04-06T13:56:47;9.07;;;6.77;;
9324;SDS011;4701;51.566;6.776;2023-04-06T13:59:51;10.57;;;6.20;;
9324;SDS011;4701;51.566;6.776;2023-04-06T14:02:53;9.33;;;6.40;;
9324;SDS011;4701;51.566;6.776;2023-04-06T14:05:56;9.37;;;6.57;;
9324;SDS011;4701;51.566;6.776;2023-04-06T14:08:57;11.07;;;6.40;;
9324;SDS011;4701;51.566;6.776;2023-04-06T14:12:01;9.37;;;6.90;;
9324;SDS011;4701;51.566;6.776;2023-04-06T14:15:02;11.47;;;7.83;;
9324;SDS011;4701;51.566;6.776;2023-04-06T14:18:05;8.70;;;6.73;;
9324;SDS011;4701;51.566;6.776;2023-04-06T14:21:07;9.83;;;7.13;;
9324;SDS011;4701;51.566;6.776;2023-04-06T14:24:09;9.30;;;8.10;;
9324;SDS011;4701;51.566;6.776;2023-04-06T14:27:12;8.97;;;8.03;;
9324;SDS011;4701;51.566;6.776;2023-04-06T14:30:14;9.47;;;7.20;;
9324;SDS011;4701;51.566;6.776;2023-04-06T14:33:16;10.60;;;7.87;;
9324;SDS011;4701;51.566;6.776;2023-04-06T14:36:18;14.13;;;8.83;;
9324;SDS011;4701;51.566;6.776;2023-04-06T14:39:20;8.97;;;7.80;;
9324;SDS011;4701;51.566;6.776;2023-04-06T14:42:24;10.60;;;7.70;;
9324;SDS011;4701;51.566;6.776;2023-04-06T14:45:26;10.97;;;8.03;;
9324;SDS011;4701;51.566;6.776;2023-04-06T14:48:28;10.43;;;7.97;;
9324;SDS011;4701;51.566;6.776;2023-04-06T14:51:30;8.87;;;7.17;;
9324;SDS011;4701;51.566;6.776;2023-04-06T14:54:32;10.87;;;7.87;;
9324;SDS011;4701;51.566;6.776;2023-04-06T14:57:35;13.03;;;7.80;;
9324;SDS011;4701;51.566;6.776;2023-04-06T15:00:37;9.13;;;7.73;;
9324;SDS011;4701;51.566;6.776;2023-04-06T15:03:39;11.63;;;8.50;;
9324;SDS011;4701;51.566;6.776;2023-04-06T15:06:41;12.33;;;8.80;;
9324;SDS011;4701;51.566;6.776;2023-04-06T15:09:43;12.93;;;9.30;;
9324;SDS011;4701;51.566;6.776;2023-04-06T15:12:46;12.97;;;9.43;;
9324;SDS011;4701;51.566;6.776;2023-04-06T15:15:49;10.53;;;8.80;;
9324;SDS011;4701;51.566;6.776;2023-04-06T15:18:52;12.27;;;9.40;;
9324;SDS011;4701;51.566;6.776;2023-04-06T15:21:54;11.13;;;8.47;;
9324;SDS011;4701;51.566;6.776;2023-04-06T15:24:56;11.83;;;8.63;;
9324;SDS011;4701;51.566;6.776;2023-04-06T15:27:59;12.20;;;9.10;;
9324;SDS011;4701;51.566;6.776;2023-04-06T15:31:01;12.27;;;8.67;;
9324;SDS011;4701;51.566;6.776;2023-04-06T15:34:06;12.67;;;9.63;;
9324;SDS011;4701;51.566;6.776;2023-04-06T15:37:08;15.90;;;12.37;;
9324;SDS011;4701;51.566;6.776;2023-04-06T15:40:10;15.90;;;9.90;;
9324;SDS011;4701;51.566;6.776;2023-04-06T15:43:15;10.93;;;9.33;;
9324;SDS011;4701;51.566;6.776;2023-04-06T15:46:17;13.37;;;10.00;;
9324;SDS011;4701;51.566;6.776;2023-04-06T15:49:19;11.23;;;8.97;;
9324;SDS011;4701;51.566;6.776;2023-04-06T15:52:21;11.33;;;8.73;;
9324;SDS011;4701;51.566;6.776;2023-04-06T15:55:23;12.37;;;8.97;;
9324;SDS011;4701;51.566;6.776;2023-04-06T15:58:26;10.80;;;8.40;;
9324;SDS011;4701;51.566;6.776;2023-04-06T16:01:28;11.27;;;7.80;;
9324;SDS011;4701;51.566;6.776;2023-04-06T16:04:30;8.90;;;7.63;;
9324;SDS011;4701;51.566;6.776;2023-04-06T16:07:32;8.70;;;7.50;;
9324;SDS011;4701;51.566;6.776;2023-04-06T16:10:34;11.13;;;8.63;;
9324;SDS011;4701;51.566;6.776;2023-04-06T16:13:38;10.17;;;7.97;;
9324;SDS011;4701;51.566;6.776;2023-04-06T16:16:40;11.63;;;8.60;;
9324;SDS011;4701;51.566;6.776;2023-04-06T16:19:42;14.13;;;9.03;;
9324;SDS011;4701;51.566;6.776;2023-04-06T16:22:44;10.23;;;7.90;;
9324;SDS011;4701;51.566;6.776;2023-04-06T16:25:46;9.27;;;8.23;;
9324;SDS011;4701;51.566;6.776;2023-04-06T16:28:51;9.43;;;7.67;;
9324;SDS011;4701;51.566;6.776;2023-04-06T16:31:53;11.93;;;8.23;;
9324;SDS011;4701;51.566;6.776;2023-04-06T16:34:55;12.13;;;7.63;;
9324;SDS011;4701;51.566;6.776;2023-04-06T16:37:56;8.33;;;6.23;;
9324;SDS011;4701;51.566;6.776;2023-04-06T16:40:59;9.33;;;7.20;;
9324;SDS011;4701;51.566;6.776;2023-04-06T16:44:03;9.83;;;7.30;;
9324;SDS011;4701;51.566;6.776;2023-04-06T16:47:05;11.67;;;7.87;;
9324;SDS011;4701;51.566;6.776;2023-04-06T16:50:08;8.27;;;7.20;;
9324;SDS011;4701;51.566;6.776;2023-04-06T16:53:10;10.83;;;7.77;;
9324;SDS011;4701;51.566;6.776;2023-04-06T16:56:12;9.90;;;7.87;;
9324;SDS011;4701;51.566;6.776;2023-04-06T16:59:15;10.20;;;7.73;;
9324;SDS011;4701;51.566;6.776;2023-04-06T17:02:17;10.47;;;8.50;;
9324;SDS011;4701;51.566;6.776;2023-04-06T17:05:19;9.77;;;8.23;;
9324;SDS011;4701;51.566;6.776;2023-04-06T17:08:25;9.73;;;7.83;;
9324;SDS011;4701;51.566;6.776;2023-04-06T17:11:27;9.33;;;7.60;;
9324;SDS011;4701;51.566;6.776;2023-04-06T17:14:30;10.30;;;7.63;;
9324;SDS011;4701;51.566;6.776;2023-04-06T17:17:32;11.83;;;7.83;;
9324;SDS011;4701;51.566;6.776;2023-04-06T17:20:34;10.23;;;8.13;;
9324;SDS011;4701;51.566;6.776;2023-04-06T17:23:37;10.63;;;8.03;;
9324;SDS011;4701;51.566;6.776;2023-04-06T17:26:38;9.10;;;7.53;;
9324;SDS011;4701;51.566;6.776;2023-04-06T17:29:42;9.17;;;7.17;;
9324;SDS011;4701;51.566;6.776;2023-04-06T17:32:44;10.40;;;8.13;;
9324;SDS011;4701;51.566;6.776;2023-04-06T17:35:46;9.93;;;8.63;;
9324;SDS011;4701;51.566;6.776;2023-04-06T17:38:51;24.80;;;19.03;;
9324;SDS011;4701;51.566;6.776;2023-04-06T17:41:53;16.93;;;12.53;;
9324;SDS011;4701;51.566;6.776;2023-04-06T17:44:57;10.90;;;8.20;;
9324;SDS011;4701;51.566;6.776;2023-04-06T17:47:59;9.07;;;7.53;;
9324;SDS011;4701;51.566;6.776;2023-04-06T17:51:01;9.47;;;7.47;;
9324;SDS011;4701;51.566;6.776;2023-04-06T17:54:03;10.57;;;6.30;;
9324;SDS011;4701;51.566;6.776;2023-04-06T17:57:04;8.93;;;7.00;;
9324;SDS011;4701;51.566;6.776;2023-04-06T18:00:09;7.07;;;6.00;;
9324;SDS011;4701;51.566;6.776;2023-04-06T18:03:12;9.13;;;7.00;;
9324;SDS011;4701;51.566;6.776;2023-04-06T18:06:14;7.80;;;6.33;;
9324;SDS011;4701;51.566;6.776;2023-04-06T18:09:17;6.63;;;5.90;;
9324;SDS011;4701;51.566;6.776;2023-04-06T18:12:18;9.53;;;7.17;;
9324;SDS011;4701;51.566;6.776;2023-04-06T18:15:22;9.23;;;7.07;;
9324;SDS011;4701;51.566;6.776;2023-04-06T18:18:23;10.60;;;7.43;;
9324;SDS011;4701;51.566;6.776;2023-04-06T18:21:26;10.30;;;8.17;;
9324;SDS011;4701;51.566;6.776;2023-04-06T18:24:28;10.30;;;7.93;;
9324;SDS011;4701;51.566;6.776;2023-04-06T18:27:30;9.53;;;7.43;;
9324;SDS011;4701;51.566;6.776;2023-04-06T18:30:33;13.30;;;7.60;;
9324;SDS011;4701;51.566;6.776;2023-04-06T18:33:35;10.73;;;8.33;;
9324;SDS011;4701;51.566;6.776;2023-04-06T18:36:37;10.67;;;8.40;;
9324;SDS011;4701;51.566;6.776;2023-04-06T18:39:41;9.50;;;8.07;;
9324;SDS011;4701;51.566;6.776;2023-04-06T18:42:43;11.33;;;8.80;;
9324;SDS011;4701;51.566;6.776;2023-04-06T18:45:46;10.03;;;7.43;;
9324;SDS011;4701;51.566;6.776;2023-04-06T18:48:48;9.73;;;8.30;;
9324;SDS011;4701;51.566;6.776;2023-04-06T18:51:50;10.23;;;7.43;;
9324;SDS011;4701;51.566;6.776;2023-04-06T18:54:53;9.43;;;8.33;;
9324;SDS011;4701;51.566;6.776;2023-04-06T18:57:55;12.47;;;9.77;;
9324;SDS011;4701;51.566;6.776;2023-04-06T19:00:58;9.77;;;8.10;;
9324;SDS011;4701;51.566;6.776;2023-04-06T19:04:00;9.53;;;8.53;;
9324;SDS011;4701;51.566;6.776;2023-04-06T19:07:02;8.70;;;7.67;;
9324;SDS011;4701;51.566;6.776;2023-04-06T19:10:04;12.17;;;9.03;;
9324;SDS011;4701;51.566;6.776;2023-04-06T19:13:07;10.00;;;8.50;;
9324;SDS011;4701;51.566;6.776;2023-04-06T19:16:10;9.53;;;8.50;;
9324;SDS011;4701;51.566;6.776;2023-04-06T19:19:12;9.97;;;8.13;;
9324;SDS011;4701;51.566;6.776;2023-04-06T19:22:14;9.67;;;8.70;;
9324;SDS011;4701;51.566;6.776;2023-04-06T19:25:16;10.43;;;8.23;;
9324;SDS011;4701;51.566;6.776;2023-04-06T19:28:19;9.97;;;8.40;;
9324;SDS011;4701;51.566;6.776;2023-04-06T19:31:22;8.90;;;7.83;;
9324;SDS011;4701;51.566;6.776;2023-04-06T19:34:26;10.03;;;9.03;;
9324;SDS011;4701;51.566;6.776;2023-04-06T19:37:28;8.60;;;7.30;;
9324;SDS011;4701;51.566;6.776;2023-04-06T19:40:30;9.83;;;8.40;;
9324;SDS011;4701;51.566;6.776;2023-04-06T19:43:31;10.83;;;8.00;;
9324;SDS011;4701;51.566;6.776;2023-04-06T19:46:34;9.80;;;8.67;;
9324;SDS011;4701;51.566;6.776;2023-04-06T19:49:36;10.63;;;8.10;;
9324;SDS011;4701;51.566;6.776;2023-04-06T19:52:40;10.87;;;9.07;;
9324;SDS011;4701;51.566;6.776;2023-04-06T19:55:41;10.00;;;8.30;;
9324;SDS011;4701;51.566;6.776;2023-04-06T19:58:44;10.03;;;8.40;;
9324;SDS011;4701;51.566;6.776;2023-04-06T20:01:47;8.73;;;7.70;;
9324;SDS011;4701;51.566;6.776;2023-04-06T20:04:51;8.23;;;7.43;;
9324;SDS011;4701;51.566;6.776;2023-04-06T20:07:53;9.17;;;8.27;;
9324;SDS011;4701;51.566;6.776;2023-04-06T20:10:59;9.70;;;8.70;;
9324;SDS011;4701;51.566;6.776;2023-04-06T20:14:01;9.10;;;7.57;;
9324;SDS011;4701;51.566;6.776;2023-04-06T20:17:05;9.90;;;8.77;;
9324;SDS011;4701;51.566;6.776;2023-04-06T20:20:08;10.00;;;8.33;;
9324;SDS011;4701;51.566;6.776;2023-04-06T20:23:11;8.60;;;7.70;;
9324;SDS011;4701;51.566;6.776;2023-04-06T20:26:13;8.60;;;7.57;;
9324;SDS011;4701;51.566;6.776;2023-04-06T20:29:15;9.03;;;7.60;;
9324;SDS011;4701;51.566;6.776;2023-04-06T20:32:18;8.27;;;7.47;;
9324;SDS011;4701;51.566;6.776;2023-04-06T20:35:20;8.37;;;7.57;;
9324;SDS011;4701;51.566;6.776;2023-04-06T20:38:22;8.47;;;7.63;;
9324;SDS011;4701;51.566;6.776;2023-04-06T20:41:24;8.17;;;7.37;;
9324;SDS011;4701;51.566;6.776;2023-04-06T20:44:26;9.03;;;6.87;;
9324;SDS011;4701;51.566;6.776;2023-04-06T20:47:30;8.37;;;7.60;;
9324;SDS011;4701;51.566;6.776;2023-04-06T20:50:35;8.47;;;7.67;;
9324;SDS011;4701;51.566;6.776;2023-04-06T20:53:37;9.47;;;7.43;;
9324;SDS011;4701;51.566;6.776;2023-04-06T20:56:39;7.90;;;7.10;;
9324;SDS011;4701;51.566;6.776;2023-04-06T20:59:41;9.60;;;7.93;;
